createdAt,value
2024-01-26T00:01:28.309Z,26.95
2024-01-26T00:03:55.115Z,25.95
2024-01-26T00:06:21.906Z,27.00
2024-01-26T00:08:48.424Z,27.35
2024-01-26T00:11:15.808Z,23.23
2024-01-26T00:13:42.414Z,28.98
2024-01-26T00:16:09.532Z,22.45
2024-01-26T00:18:37.085Z,22.08
2024-01-26T00:21:04.955Z,25.40
2024-01-26T00:23:31.726Z,25.55
2024-01-26T00:25:58.396Z,23.50
2024-01-26T00:28:25.034Z,25.05
2024-01-26T00:30:51.576Z,23.77
2024-01-26T00:33:18.848Z,20.23
2024-01-26T00:35:45.488Z,26.25
2024-01-26T00:38:12.016Z,21.27
2024-01-26T00:40:38.452Z,17.92
2024-01-26T00:43:05.072Z,19.65
2024-01-26T00:45:31.743Z,20.05
2024-01-26T00:47:58.347Z,19.95
2024-01-26T00:50:26.112Z,18.98
2024-01-26T00:52:53.186Z,15.30
2024-01-26T00:55:19.698Z,18.20
2024-01-26T00:57:46.300Z,18.55
2024-01-26T01:00:13.789Z,19.45
2024-01-26T01:02:40.305Z,16.58
2024-01-26T01:05:08.101Z,16.02
2024-01-26T01:07:34.693Z,17.83
2024-01-26T01:10:01.485Z,17.05
2024-01-26T01:12:27.995Z,16.10
2024-01-26T01:14:54.471Z,17.27
2024-01-26T01:17:20.961Z,16.65
2024-01-26T01:19:47.573Z,16.02
2024-01-26T01:22:14.085Z,17.00
2024-01-26T01:24:40.549Z,16.42
2024-01-26T01:27:07.156Z,14.93
2024-01-26T01:29:33.726Z,13.63
2024-01-26T01:32:00.248Z,14.82
2024-01-26T01:34:26.901Z,15.50
2024-01-26T01:36:53.426Z,16.17
2024-01-26T01:39:19.979Z,19.15
2024-01-26T01:41:50.149Z,16.77
2024-01-26T01:44:16.658Z,16.30
2024-01-26T01:46:43.212Z,20.17
2024-01-26T01:49:09.840Z,17.75
2024-01-26T01:51:36.691Z,15.07
2024-01-26T01:54:04.019Z,16.67
2024-01-26T01:56:30.655Z,17.73
2024-01-26T01:58:59.901Z,17.55
2024-01-26T02:01:26.763Z,18.90
2024-01-26T02:03:53.337Z,18.77
2024-01-26T02:06:20.204Z,18.85
2024-01-26T02:08:46.814Z,17.40
2024-01-26T02:11:13.379Z,19.83
2024-01-26T02:13:39.830Z,16.45
2024-01-26T02:16:06.403Z,17.83
2024-01-26T02:18:34.055Z,16.73
2024-01-26T02:21:00.632Z,14.68
2024-01-26T02:23:27.215Z,15.50
2024-01-26T02:25:53.799Z,14.70
2024-01-26T02:28:20.468Z,12.90
2024-01-26T02:30:47.153Z,14.10
2024-01-26T02:33:13.935Z,14.30
2024-01-26T02:35:40.551Z,15.50
2024-01-26T02:38:07.089Z,12.88
2024-01-26T02:40:33.785Z,13.45
2024-01-26T02:43:00.292Z,13.20
2024-01-26T02:45:27.367Z,14.40
2024-01-26T02:47:54.968Z,14.45
2024-01-26T02:50:21.623Z,11.60
2024-01-26T02:52:48.131Z,12.80
2024-01-26T02:55:14.604Z,13.68
2024-01-26T02:57:41.077Z,11.45
2024-01-26T03:00:09.001Z,13.68
2024-01-26T03:02:35.871Z,13.70
2024-01-26T03:05:02.426Z,11.38
2024-01-26T03:07:28.916Z,12.05
2024-01-26T03:09:55.406Z,11.85
2024-01-26T03:12:21.965Z,13.40
2024-01-26T03:14:48.670Z,12.88
2024-01-26T03:17:15.170Z,16.65
2024-01-26T03:19:41.687Z,11.50
2024-01-26T03:22:08.272Z,11.70
2024-01-26T03:24:34.886Z,15.50
2024-01-26T03:27:01.493Z,14.18
2024-01-26T03:29:28.078Z,13.45
2024-01-26T03:31:54.692Z,15.68
2024-01-26T03:34:21.303Z,16.33
2024-01-26T03:36:48.460Z,17.92
2024-01-26T03:39:15.125Z,18.98
2024-01-26T03:41:42.226Z,15.00
2024-01-26T03:44:09.055Z,13.40
2024-01-26T03:46:35.530Z,15.68
2024-01-26T03:49:04.881Z,16.45
2024-01-26T03:51:31.551Z,18.92
2024-01-26T03:54:00.644Z,16.52
2024-01-26T03:56:27.360Z,15.93
2024-01-26T03:58:54.873Z,17.95
2024-01-26T04:01:21.932Z,20.63
2024-01-26T04:03:49.256Z,17.13
2024-01-26T04:06:16.038Z,18.05
2024-01-26T04:08:42.640Z,18.88
2024-01-26T04:11:09.217Z,19.33
2024-01-26T04:13:35.705Z,18.67
2024-01-26T04:16:02.195Z,18.50
2024-01-26T04:18:28.821Z,19.13
2024-01-26T04:20:55.479Z,19.38
2024-01-26T04:23:22.022Z,21.02
2024-01-26T04:25:48.778Z,16.80
2024-01-26T04:28:15.440Z,16.83
2024-01-26T04:30:44.430Z,16.77
2024-01-26T04:33:11.392Z,19.17
2024-01-26T04:35:38.085Z,16.75
2024-01-26T04:38:06.883Z,16.67
2024-01-26T04:40:34.637Z,20.05
2024-01-26T04:43:01.379Z,19.23
2024-01-26T04:45:27.899Z,22.92
2024-01-26T04:47:54.454Z,19.73
2024-01-26T04:50:20.928Z,21.30
2024-01-26T04:52:47.425Z,19.23
2024-01-26T04:55:13.989Z,20.60
2024-01-26T04:57:40.485Z,20.27
2024-01-26T05:00:09.088Z,23.90
2024-01-26T05:02:35.728Z,20.33
2024-01-26T05:05:02.301Z,19.15
2024-01-26T05:07:28.860Z,17.75
2024-01-26T05:09:55.362Z,23.67
2024-01-26T05:12:22.028Z,19.35
2024-01-26T05:14:48.655Z,19.25
2024-01-26T05:17:15.104Z,21.10
2024-01-26T05:19:41.644Z,20.42
2024-01-26T05:22:08.191Z,22.15
2024-01-26T05:24:34.647Z,19.48
2024-01-26T05:27:01.234Z,24.77
2024-01-26T05:29:27.915Z,25.52
2024-01-26T05:31:54.466Z,23.30
2024-01-26T05:34:21.285Z,22.20
2024-01-26T05:36:47.932Z,21.27
2024-01-26T05:39:14.866Z,20.92
2024-01-26T05:41:41.695Z,19.10
2024-01-26T05:44:08.212Z,18.92
2024-01-26T05:46:34.727Z,18.63
2024-01-26T05:49:02.634Z,21.42
2024-01-26T05:51:29.626Z,17.65
2024-01-26T05:53:56.256Z,18.55
2024-01-26T05:56:25.773Z,19.50
2024-01-26T05:58:53.706Z,17.48
2024-01-26T06:01:20.272Z,19.45
2024-01-26T06:03:46.871Z,19.98
2024-01-26T06:06:13.463Z,18.73
2024-01-26T06:08:45.407Z,13.85
2024-01-26T06:11:12.293Z,20.63
2024-01-26T06:13:38.822Z,17.90
2024-01-26T06:16:06.092Z,15.98
2024-01-26T06:18:32.694Z,16.70
2024-01-26T06:20:59.366Z,18.65
2024-01-26T06:23:26.081Z,7.63
2024-01-26T06:25:53.024Z,11.32
2024-01-26T06:28:19.521Z,13.68
2024-01-26T06:30:46.124Z,11.80
2024-01-26T06:33:12.792Z,13.40
2024-01-26T06:35:39.491Z,10.50
2024-01-26T06:38:06.017Z,10.23
2024-01-26T06:40:32.600Z,12.00
2024-01-26T06:43:03.017Z,11.82
2024-01-26T06:45:29.501Z,13.35
2024-01-26T06:47:56.203Z,14.40
2024-01-26T06:50:22.779Z,11.45
2024-01-26T06:52:49.334Z,11.90
2024-01-26T06:55:15.926Z,13.90
2024-01-26T06:57:42.586Z,10.80
2024-01-26T07:00:10.432Z,14.32
2024-01-26T07:02:38.174Z,9.75
2024-01-26T07:05:05.232Z,13.98
2024-01-26T07:07:31.661Z,12.38
2024-01-26T07:09:58.185Z,12.95
2024-01-26T07:12:24.692Z,11.50
2024-01-26T07:14:51.205Z,12.10
2024-01-26T07:17:18.284Z,13.20
2024-01-26T07:19:44.825Z,15.48
2024-01-26T07:22:11.262Z,12.02
2024-01-26T07:24:37.819Z,14.93
2024-01-26T07:27:04.383Z,11.63
2024-01-26T07:29:30.896Z,14.43
2024-01-26T07:31:57.454Z,10.90
2024-01-26T07:34:24.037Z,16.98
2024-01-26T07:36:50.612Z,14.43
2024-01-26T07:39:17.248Z,14.02
2024-01-26T07:41:43.803Z,10.63
2024-01-26T07:44:10.356Z,10.73
2024-01-26T07:46:39.794Z,14.27
2024-01-26T07:49:06.704Z,11.88
2024-01-26T07:51:33.397Z,12.10
2024-01-26T07:53:59.997Z,12.05
2024-01-26T07:56:26.482Z,11.73
2024-01-26T07:58:53.111Z,12.07
2024-01-26T08:01:19.981Z,15.38
2024-01-26T08:03:47.229Z,13.90
2024-01-26T08:06:16.643Z,18.95
2024-01-26T08:08:43.198Z,11.93
2024-01-26T08:11:11.756Z,12.07
2024-01-26T08:13:38.468Z,9.85
2024-01-26T08:16:05.426Z,11.10
2024-01-26T08:18:32.185Z,15.43
2024-01-26T08:20:58.983Z,8.82
2024-01-26T08:23:25.896Z,13.13
2024-01-26T08:25:52.627Z,12.77
2024-01-26T08:28:19.332Z,8.43
2024-01-26T08:30:46.059Z,12.95
2024-01-26T08:33:12.675Z,10.27
2024-01-26T08:35:39.445Z,11.85
2024-01-26T08:38:06.069Z,11.50
2024-01-26T08:40:32.570Z,11.23
2024-01-26T08:42:59.099Z,11.02
2024-01-26T08:45:25.831Z,9.38
2024-01-26T08:47:52.973Z,6.70
2024-01-26T08:50:19.664Z,8.88
2024-01-26T08:52:46.281Z,4.53
2024-01-26T08:55:12.903Z,7.57
2024-01-26T08:57:39.554Z,6.68
2024-01-26T09:00:10.441Z,6.30
2024-01-26T09:02:37.308Z,7.80
2024-01-26T09:05:03.982Z,12.73
2024-01-26T09:07:30.497Z,14.13
2024-01-26T09:09:56.950Z,7.68
2024-01-26T09:12:23.482Z,6.60
2024-01-26T09:14:50.058Z,7.05
2024-01-26T09:17:17.425Z,5.20
2024-01-26T09:19:44.082Z,6.50
2024-01-26T09:22:10.624Z,5.47
2024-01-26T09:24:37.170Z,10.13
2024-01-26T09:27:03.869Z,6.53
2024-01-26T09:29:30.350Z,8.93
2024-01-26T09:31:58.199Z,7.28
2024-01-26T09:34:25.150Z,4.60
2024-01-26T09:36:53.542Z,7.13
2024-01-26T09:39:22.963Z,6.65
2024-01-26T09:41:49.732Z,7.82
2024-01-26T09:44:16.230Z,8.07
2024-01-26T09:46:44.360Z,8.07
2024-01-26T09:49:11.125Z,7.70
2024-01-26T09:51:38.212Z,8.52
2024-01-26T09:54:06.179Z,6.55
2024-01-26T09:56:34.623Z,13.00
2024-01-26T09:59:02.435Z,4.80
2024-01-26T10:01:29.220Z,9.40
2024-01-26T10:03:57.430Z,12.73
2024-01-26T10:06:24.329Z,12.38
2024-01-26T10:08:50.910Z,11.98
2024-01-26T10:11:17.460Z,10.07
2024-01-26T10:13:44.002Z,9.95
2024-01-26T10:16:14.065Z,7.50
2024-01-26T10:18:41.970Z,7.50
2024-01-26T10:21:09.244Z,8.43
2024-01-26T10:23:36.426Z,7.65
2024-01-26T10:26:04.025Z,11.88
2024-01-26T10:28:30.685Z,7.65
2024-01-26T10:30:57.237Z,9.73
2024-01-26T10:33:27.141Z,9.43
2024-01-26T10:38:26.454Z,8.52
2024-01-26T10:40:59.672Z,8.07
2024-01-26T10:43:26.558Z,14.07
2024-01-26T10:45:53.742Z,7.70
2024-01-26T10:48:20.776Z,6.90
2024-01-26T10:50:48.374Z,9.48
2024-01-26T10:53:15.995Z,7.35
2024-01-26T10:55:43.902Z,6.40
2024-01-26T10:58:11.075Z,7.47
2024-01-26T11:00:37.786Z,11.73
2024-01-26T11:03:04.908Z,10.85
2024-01-26T11:05:32.062Z,8.20
2024-01-26T11:07:59.562Z,8.73
2024-01-26T11:10:27.321Z,7.70
2024-01-26T11:13:02.146Z,6.65
2024-01-26T11:15:29.674Z,6.47
2024-01-26T11:18:00.262Z,13.60
2024-01-26T11:20:31.666Z,8.05
2024-01-26T11:23:15.967Z,10.93
2024-01-26T11:25:44.576Z,8.07
2024-01-26T11:28:12.187Z,8.85
2024-01-26T11:30:38.907Z,11.07
2024-01-26T11:33:19.202Z,11.00
2024-01-26T11:35:46.962Z,9.50
2024-01-26T11:38:14.282Z,6.43
2024-01-26T11:40:41.169Z,11.50
2024-01-26T11:43:08.321Z,12.32
2024-01-26T11:45:46.386Z,10.02
2024-01-26T11:48:14.881Z,9.52
2024-01-26T11:50:45.998Z,9.60
2024-01-26T11:53:17.738Z,11.00
2024-01-26T11:55:45.379Z,12.65
2024-01-26T11:58:12.555Z,9.63
2024-01-26T12:00:40.215Z,10.40
2024-01-26T12:03:09.520Z,14.73
2024-01-26T12:05:37.446Z,14.88
2024-01-26T12:08:06.160Z,10.80
2024-01-26T12:10:36.301Z,10.20
2024-01-26T12:13:04.576Z,9.75
2024-01-26T12:15:33.424Z,9.55
2024-01-26T12:20:27.431Z,7.57
2024-01-26T12:22:57.194Z,15.13
2024-01-26T12:25:28.642Z,12.50
2024-01-26T12:27:55.787Z,12.68
2024-01-26T12:30:22.577Z,10.27
2024-01-26T12:32:49.377Z,13.15
2024-01-26T12:35:16.054Z,11.98
2024-01-26T12:37:45.158Z,12.30
2024-01-26T12:40:12.262Z,9.77
2024-01-26T12:42:39.451Z,9.75
2024-01-26T12:45:06.215Z,9.48
2024-01-26T12:47:33.011Z,9.63
2024-01-26T12:49:59.742Z,8.63
2024-01-26T12:52:26.324Z,12.82
2024-01-26T12:54:56.253Z,7.72
2024-01-26T12:59:49.951Z,7.72
2024-01-26T13:02:16.801Z,14.40
2024-01-26T13:04:44.167Z,8.55
2024-01-26T13:07:11.323Z,12.90
2024-01-26T13:09:37.917Z,6.22
2024-01-26T13:12:05.102Z,8.00
2024-01-26T13:14:31.675Z,7.72
2024-01-26T13:16:58.215Z,6.93
2024-01-26T13:19:24.884Z,10.07
2024-01-26T13:21:51.634Z,6.55
2024-01-26T13:24:18.753Z,10.68
2024-01-26T13:26:46.052Z,12.55
2024-01-26T13:29:12.926Z,8.50
2024-01-26T13:31:39.680Z,7.95
2024-01-26T13:34:06.321Z,8.20
2024-01-26T13:36:32.933Z,7.50
2024-01-26T13:38:59.489Z,9.70
2024-01-26T13:41:26.231Z,10.88
2024-01-26T13:43:52.964Z,10.40
2024-01-26T13:46:19.785Z,11.00
2024-01-26T13:48:46.420Z,8.95
2024-01-26T13:51:13.114Z,8.13
2024-01-26T13:53:39.769Z,12.02
2024-01-26T13:56:06.621Z,9.90
2024-01-26T13:58:33.151Z,11.85
2024-01-26T14:01:00.171Z,11.23
2024-01-26T14:03:26.898Z,12.13
2024-01-26T14:05:53.795Z,13.20
2024-01-26T14:08:20.424Z,10.90
2024-01-26T14:10:46.953Z,9.45
2024-01-26T14:13:13.377Z,8.82
2024-01-26T14:15:39.880Z,8.23
2024-01-26T14:18:06.527Z,10.45
2024-01-26T14:20:35.034Z,9.35
2024-01-26T14:23:01.497Z,12.50
2024-01-26T14:25:28.013Z,10.82
2024-01-26T14:27:55.140Z,11.57
2024-01-26T14:30:23.508Z,10.63
2024-01-26T14:32:50.704Z,8.93
2024-01-26T14:35:17.305Z,10.57
2024-01-26T14:37:44.656Z,10.45
2024-01-26T14:40:14.248Z,10.27
2024-01-26T14:42:41.051Z,13.68
2024-01-26T14:45:08.464Z,19.08
2024-01-26T14:47:39.332Z,11.27
2024-01-26T14:50:10.553Z,15.50
2024-01-26T14:52:41.086Z,13.05
2024-01-26T14:55:14.789Z,10.95
2024-01-26T14:57:42.191Z,12.10
2024-01-26T15:00:09.464Z,14.50
2024-01-26T15:02:39.133Z,9.82
2024-01-26T15:05:06.451Z,14.50
2024-01-26T15:07:37.217Z,9.63
2024-01-26T15:10:06.109Z,14.07
2024-01-26T15:12:32.576Z,15.02
2024-01-26T15:14:59.237Z,9.85
2024-01-26T15:17:25.719Z,14.88
2024-01-26T15:19:53.800Z,11.73
2024-01-26T15:22:20.444Z,12.65
2024-01-26T15:24:47.023Z,14.00
2024-01-26T15:27:13.521Z,16.40
2024-01-26T15:29:39.998Z,15.27
2024-01-26T15:32:06.933Z,14.43
2024-01-26T15:34:36.397Z,12.55
2024-01-26T15:37:03.477Z,12.73
2024-01-26T15:39:29.964Z,18.63
2024-01-26T15:41:56.535Z,15.23
2024-01-26T15:44:23.414Z,14.23
2024-01-26T15:46:49.891Z,9.43
2024-01-26T15:49:16.674Z,15.73
2024-01-26T15:51:43.203Z,11.48
2024-01-26T15:54:10.204Z,13.48
2024-01-26T15:56:39.336Z,11.80
2024-01-26T15:59:05.954Z,13.40
2024-01-26T16:01:32.759Z,13.68
2024-01-26T16:03:59.430Z,18.00
2024-01-26T16:06:26.250Z,13.45
2024-01-26T16:08:52.811Z,14.98
2024-01-26T16:11:20.189Z,16.35
2024-01-26T16:13:47.247Z,13.77
2024-01-26T16:16:14.213Z,15.05
2024-01-26T16:18:40.798Z,9.70
2024-01-26T16:21:07.443Z,10.80
2024-01-26T16:23:33.959Z,16.50
2024-01-26T16:26:00.452Z,12.05
2024-01-26T16:28:26.958Z,13.45
2024-01-26T16:30:53.460Z,12.73
2024-01-26T16:33:20.178Z,10.02
2024-01-26T16:35:47.006Z,13.77
2024-01-26T16:38:14.202Z,12.60
2024-01-26T16:40:40.839Z,15.02
2024-01-26T16:43:07.460Z,8.68
2024-01-26T16:45:34.025Z,11.45
2024-01-26T16:48:00.924Z,12.48
2024-01-26T16:50:27.511Z,11.70
2024-01-26T16:52:53.990Z,17.17
2024-01-26T16:55:20.628Z,16.77
2024-01-26T16:57:47.258Z,13.60
2024-01-26T17:00:14.846Z,15.93
2024-01-26T17:02:41.446Z,13.38
2024-01-26T17:05:08.129Z,21.13
2024-01-26T17:07:35.733Z,12.80
2024-01-26T17:10:02.478Z,12.90
2024-01-26T17:12:29.029Z,11.55
2024-01-26T17:14:55.649Z,13.48
2024-01-26T17:17:23.155Z,12.52
2024-01-26T17:19:52.734Z,16.48
2024-01-26T17:22:19.804Z,17.23
2024-01-26T17:24:46.443Z,13.55
2024-01-26T17:27:13.083Z,12.38
2024-01-26T17:29:39.628Z,11.85
2024-01-26T17:32:06.397Z,20.10
2024-01-26T17:34:33.957Z,13.57
2024-01-26T17:37:00.677Z,17.98
2024-01-26T17:39:27.355Z,14.63
2024-01-26T17:41:56.188Z,10.25
2024-01-26T17:44:25.312Z,13.20
2024-01-26T17:46:51.841Z,11.90
2024-01-26T17:49:18.484Z,17.50
2024-01-26T17:51:45.215Z,15.77
2024-01-26T17:54:11.678Z,14.98
2024-01-26T17:56:38.166Z,13.73
2024-01-26T17:59:04.600Z,11.85
2024-01-26T18:01:31.217Z,10.63
2024-01-26T18:03:59.573Z,14.02
2024-01-26T18:06:27.039Z,13.70
2024-01-26T18:08:53.684Z,11.18
2024-01-26T18:11:20.207Z,15.20
2024-01-26T18:13:46.717Z,15.05
2024-01-26T18:16:13.222Z,15.73
2024-01-26T18:18:40.186Z,17.80
2024-01-26T18:21:06.772Z,14.70
2024-01-26T18:23:33.386Z,15.57
2024-01-26T18:25:59.986Z,16.42
2024-01-26T18:28:26.509Z,22.98
2024-01-26T18:30:53.016Z,17.80
2024-01-26T18:33:19.898Z,12.52
2024-01-26T18:35:46.764Z,14.65
2024-01-26T18:38:13.297Z,13.93
2024-01-26T18:40:39.820Z,12.48
2024-01-26T18:43:06.265Z,9.98
2024-01-26T18:45:32.815Z,14.93
2024-01-26T18:47:59.474Z,18.60
2024-01-26T18:50:26.132Z,16.13
2024-01-26T18:52:52.785Z,15.13
2024-01-26T18:55:19.581Z,13.13
2024-01-26T18:57:46.110Z,15.85
2024-01-26T19:00:13.515Z,15.93
2024-01-26T19:02:40.653Z,12.60
2024-01-26T19:05:10.782Z,18.45
2024-01-26T19:07:37.748Z,13.70
2024-01-26T19:10:04.992Z,12.40
2024-01-26T19:12:31.776Z,16.05
2024-01-26T19:14:58.553Z,12.88
2024-01-26T19:17:25.366Z,14.95
2024-01-26T19:19:51.940Z,16.38
2024-01-26T19:22:18.520Z,14.50
2024-01-26T19:24:46.006Z,15.68
2024-01-26T19:27:12.942Z,17.75
2024-01-26T19:29:41.255Z,15.48
2024-01-26T19:32:07.867Z,14.88
2024-01-26T19:34:35.170Z,20.20
2024-01-26T19:37:05.690Z,15.45
2024-01-26T19:39:32.215Z,17.25
2024-01-26T19:41:59.172Z,19.48
2024-01-26T19:44:25.786Z,13.10
2024-01-26T19:46:52.318Z,16.10
2024-01-26T19:49:19.070Z,19.58
2024-01-26T19:51:50.309Z,18.73
2024-01-26T19:54:16.888Z,13.68
2024-01-26T19:56:43.514Z,14.40
2024-01-26T19:59:10.051Z,13.70
2024-01-26T20:01:36.557Z,15.05
2024-01-26T20:04:03.238Z,17.20
2024-01-26T20:06:29.833Z,21.30
2024-01-26T20:08:58.131Z,18.23
2024-01-26T20:11:24.678Z,15.38
2024-01-26T20:13:51.166Z,14.73
2024-01-26T20:16:17.947Z,17.83
2024-01-26T20:18:44.651Z,13.02
2024-01-26T20:21:14.483Z,16.80
2024-01-26T20:23:43.643Z,16.23
2024-01-26T20:26:10.873Z,15.73
2024-01-26T20:28:39.124Z,16.58
2024-01-26T20:31:08.749Z,19.95
2024-01-26T20:33:37.481Z,15.50
2024-01-26T20:36:04.424Z,19.23
2024-01-26T20:38:31.876Z,18.55
2024-01-26T20:40:58.442Z,17.15
2024-01-26T20:43:26.877Z,13.15
2024-01-26T20:45:53.667Z,20.15
2024-01-26T20:48:20.585Z,15.85
2024-01-26T20:50:47.525Z,18.17
2024-01-26T20:53:14.114Z,18.63
2024-01-26T20:55:40.602Z,14.25
2024-01-26T20:58:08.043Z,13.38
2024-01-26T21:00:34.730Z,15.10
2024-01-26T21:03:01.407Z,18.73
2024-01-26T21:05:32.676Z,15.10
2024-01-26T21:08:00.107Z,16.67
2024-01-26T21:10:27.033Z,12.32
2024-01-26T21:12:57.494Z,14.60
2024-01-26T21:15:25.365Z,15.98
2024-01-26T21:17:52.088Z,14.57
2024-01-26T21:20:18.988Z,12.23
2024-01-26T21:22:49.750Z,17.05
2024-01-26T21:25:16.582Z,13.38
2024-01-26T21:27:43.065Z,18.30
2024-01-26T21:30:10.193Z,15.68
2024-01-26T21:32:36.967Z,14.77
2024-01-26T21:35:05.179Z,14.52
2024-01-26T21:37:32.080Z,16.33
2024-01-26T21:39:58.627Z,17.77
2024-01-26T21:42:26.412Z,16.60
2024-01-26T21:44:53.311Z,17.85
2024-01-26T21:47:19.956Z,17.85
2024-01-26T21:49:46.761Z,15.32
2024-01-26T21:52:15.311Z,10.60
2024-01-26T21:54:41.976Z,13.00
2024-01-26T21:57:08.713Z,11.70
2024-01-26T21:59:35.247Z,15.75
2024-01-26T22:02:01.774Z,16.63
2024-01-26T22:04:29.412Z,17.92
2024-01-26T22:06:56.578Z,13.90
2024-01-26T22:09:23.342Z,13.40
2024-01-26T22:11:49.961Z,14.35
2024-01-26T22:14:17.992Z,15.82
2024-01-26T22:16:44.501Z,12.27
2024-01-26T22:19:11.201Z,18.27
2024-01-26T22:21:37.830Z,10.80
2024-01-26T22:24:04.782Z,16.55
2024-01-26T22:26:31.320Z,15.43
2024-01-26T22:28:59.810Z,19.38
2024-01-26T22:31:26.420Z,15.32
2024-01-26T22:33:53.267Z,10.95
2024-01-26T22:36:20.325Z,15.90
2024-01-26T22:38:53.605Z,14.30
2024-01-26T22:41:20.290Z,16.33
2024-01-26T22:43:46.832Z,14.57
2024-01-26T22:46:13.764Z,9.82
2024-01-26T22:48:40.509Z,16.30
2024-01-26T22:51:07.341Z,12.43
2024-01-26T22:53:33.848Z,14.13
2024-01-26T22:56:01.106Z,13.77
2024-01-26T22:58:27.614Z,11.07
2024-01-26T23:00:54.163Z,18.70
2024-01-26T23:03:20.895Z,14.20
2024-01-26T23:05:49.218Z,19.83
2024-01-26T23:08:16.018Z,12.02
2024-01-26T23:10:42.539Z,13.20
2024-01-26T23:13:09.102Z,11.85
2024-01-26T23:15:35.635Z,16.48
2024-01-26T23:18:02.540Z,10.73
2024-01-26T23:20:29.136Z,12.05
2024-01-26T23:22:55.637Z,16.02
2024-01-26T23:25:22.144Z,15.98
2024-01-26T23:27:48.840Z,18.63
2024-01-26T23:30:15.486Z,14.95
2024-01-26T23:32:45.335Z,14.02
2024-01-26T23:35:12.888Z,14.05
2024-01-26T23:37:39.485Z,17.50
2024-01-26T23:40:07.315Z,12.43
2024-01-26T23:42:34.007Z,14.45
2024-01-26T23:45:00.858Z,10.65
2024-01-26T23:47:27.561Z,14.20
2024-01-26T23:49:54.305Z,15.65
2024-01-26T23:52:21.501Z,12.70
2024-01-26T23:54:48.023Z,14.98
2024-01-26T23:57:15.417Z,10.90
2024-01-26T23:59:42.077Z,13.75
